Time;durP1;ratioP1;P1;durP2;ratioP2;P2;SDS_P1;SDS_P2;PMS_P1;PMS_P2;Temp;Humidity;BMP_temperature;BMP_pressure;BME280_temperature;BME280_humidity;BME280_pressure;Samples;Min_cycle;Max_cycle;Signal;HPM_P1;HPM_P2
2023/07/03 00:01:49;;;;;;;20.00;13.77;;;18.10;1.00;;;;;;5139124;27;20183;-48
2023/07/03 00:04:15;;;;;;;19.33;14.97;;;18.20;1.00;;;;;;5139265;27;20189;-47
2023/07/03 00:06:40;;;;;;;15.73;12.60;;;18.20;1.00;;;;;;5138709;27;20197;-52
2023/07/03 00:09:06;;;;;;;19.77;14.40;;;18.20;1.00;;;;;;5121061;27;20267;-49
2023/07/03 00:11:32;;;;;;;17.13;14.87;;;18.20;1.00;;;;;;5139066;27;20187;-48
2023/07/03 00:13:58;;;;;;;18.53;14.17;;;18.30;1.00;;;;;;5138598;27;20294;-49
2023/07/03 00:16:24;;;;;;;20.30;13.43;;;18.30;1.00;;;;;;5138410;27;20436;-50
2023/07/03 00:18:49;;;;;;;21.07;14.73;;;18.30;1.00;;;;;;5137918;27;20175;-48
2023/07/03 00:21:15;;;;;;;18.20;14.50;;;18.30;1.00;;;;;;5139073;27;20175;-48
2023/07/03 00:23:40;;;;;;;17.33;13.33;;;18.20;1.00;;;;;;5138363;27;20684;-47
2023/07/03 00:26:06;;;;;;;17.00;14.10;;;18.20;1.00;;;;;;5138017;27;20195;-48
2023/07/03 00:28:32;;;;;;;16.50;13.40;;;18.10;1.00;;;;;;5136903;27;20453;-48
2023/07/03 00:30:57;;;;;;;18.10;13.10;;;18.10;1.00;;;;;;5138061;27;20243;-52
2023/07/03 00:33:23;;;;;;;18.50;14.00;;;18.10;1.00;;;;;;5138071;27;20171;-50
2023/07/03 00:35:48;;;;;;;19.27;13.80;;;18.00;1.00;;;;;;5137670;27;20244;-49
2023/07/03 00:38:14;;;;;;;18.57;14.07;;;17.80;1.00;;;;;;5118805;27;20187;-48
2023/07/03 00:40:39;;;;;;;17.20;13.20;;;17.70;1.00;;;;;;5138503;27;20183;-48
2023/07/03 00:43:05;;;;;;;18.03;13.17;;;17.60;1.00;;;;;;5138170;27;20187;-50
2023/07/03 00:45:32;;;;;;;23.43;14.50;;;17.60;1.00;;;;;;5138100;27;20175;-47
2023/07/03 00:47:58;;;;;;;22.13;14.20;;;17.50;1.00;;;;;;5138579;27;20179;-48
2023/07/03 00:50:24;;;;;;;17.17;14.03;;;17.50;1.00;;;;;;5119141;27;20473;-49
2023/07/03 00:52:53;;;;;;;21.37;13.63;;;17.50;1.00;;;;;;5138537;27;20428;-51
2023/07/03 00:55:20;;;;;;;20.70;13.97;;;17.50;1.00;;;;;;5119446;27;20186;-50
2023/07/03 00:57:45;;;;;;;22.43;13.20;;;17.70;1.00;;;;;;5136994;27;20424;-48
2023/07/03 01:00:13;;;;;;;15.83;13.57;;;17.80;1.00;;;;;;5137550;27;20473;-47
2023/07/03 01:02:42;;;;;;;19.07;13.20;;;17.80;1.00;;;;;;5137509;27;20700;-46
2023/07/03 01:05:24;;;;;;;15.77;12.23;;;17.80;1.00;;;;;;5119815;27;20500;-49
2023/07/03 01:07:51;;;;;;;20.17;12.83;;;17.80;1.00;;;;;;5137587;27;20424;-46
2023/07/03 01:10:22;;;;;;;19.57;14.00;;;17.70;1.00;;;;;;5119270;27;20823;-44
2023/07/03 01:12:54;;;;;;;18.30;13.70;;;17.70;1.00;;;;;;5137441;27;20409;-43
2023/07/03 01:15:24;;;;;;;18.20;13.53;;;17.60;1.00;;;;;;5119727;27;20413;-44
2023/07/03 01:17:50;;;;;;;16.73;13.10;;;17.40;1.00;;;;;;5118372;27;20497;-44
2023/07/03 01:20:18;;;;;;;17.80;13.87;;;17.30;1.00;;;;;;5119869;27;20447;-46
2023/07/03 01:23:18;;;;;;;23.00;14.80;;;17.20;1.00;;;;;;5138709;27;20425;-45
2023/07/03 01:25:43;;;;;;;21.50;13.77;;;17.20;1.00;;;;;;5138085;27;20507;-47
2023/07/03 01:28:12;;;;;;;20.10;13.53;;;17.10;1.00;;;;;;5118399;27;20468;-43
2023/07/03 01:30:40;;;;;;;18.47;13.20;;;17.10;1.00;;;;;;5137699;27;20467;-46
2023/07/03 01:33:07;;;;;;;19.77;14.67;;;17.10;1.00;;;;;;5119461;27;20516;-46
2023/07/03 01:35:32;;;;;;;21.60;13.80;;;17.10;1.00;;;;;;5138287;27;20830;-44
2023/07/03 01:38:01;;;;;;;22.73;13.97;;;17.00;1.00;;;;;;5138125;27;20603;-48
2023/07/03 01:40:27;;;;;;;21.17;13.30;;;17.10;1.00;;;;;;5120326;27;20179;-47
2023/07/03 01:42:54;;;;;;;21.30;13.20;;;17.10;1.00;;;;;;5138557;27;20432;-46
2023/07/03 01:45:19;;;;;;;18.57;13.83;;;17.10;1.00;;;;;;5120267;27;20413;-44
2023/07/03 01:47:45;;;;;;;20.37;14.33;;;17.10;1.00;;;;;;5137333;27;20436;-48
2023/07/03 01:50:15;;;;;;;20.10;14.17;;;17.00;1.00;;;;;;5137741;27;20207;-45
2023/07/03 01:52:44;;;;;;;21.70;13.73;;;17.00;1.00;;;;;;5119719;27;20395;-46
2023/07/03 01:55:44;;;;;;;18.47;13.03;;;17.00;1.00;;;;;;5119733;27;20432;-50
2023/07/03 01:58:48;;;;;;;17.90;13.13;;;17.00;1.00;;;;;;5101518;27;20440;-46
2023/07/03 02:01:24;;;;;;;15.60;12.77;;;17.00;1.00;;;;;;5077488;27;20824;-45
2023/07/03 02:03:57;;;;;;;20.10;13.53;;;16.90;1.00;;;;;;5138154;27;20404;-47
2023/07/03 02:06:33;;;;;;;19.90;14.50;;;17.00;1.00;;;;;;5118572;27;20401;-54
2023/07/03 02:09:00;;;;;;;20.40;13.63;;;17.00;1.00;;;;;;5111672;27;20558;-46
2023/07/03 02:11:27;;;;;;;21.70;14.13;;;17.00;1.00;;;;;;5119556;27;20493;-43
2023/07/03 02:13:53;;;;;;;19.43;13.77;;;17.00;1.00;;;;;;5119822;27;20544;-47
2023/07/03 02:16:18;;;;;;;19.43;13.37;;;17.00;1.00;;;;;;5137296;27;20429;-46
2023/07/03 02:18:46;;;;;;;20.00;14.33;;;16.90;1.00;;;;;;5136588;27;20175;-43
2023/07/03 02:21:13;;;;;;;25.00;13.47;;;16.90;1.00;;;;;;5136586;27;20166;-45
2023/07/03 02:23:39;;;;;;;21.80;14.07;;;16.90;1.00;;;;;;5135755;27;20436;-45
2023/07/03 02:26:05;;;;;;;18.40;12.70;;;17.00;1.00;;;;;;5135254;27;20558;-47
2023/07/03 02:28:30;;;;;;;19.90;13.80;;;16.90;1.00;;;;;;5135069;27;20421;-45
2023/07/03 02:30:56;;;;;;;17.00;13.67;;;16.90;1.00;;;;;;5135514;28;20179;-44
2023/07/03 02:33:22;;;;;;;26.07;15.17;;;16.90;1.00;;;;;;5136485;28;20440;-45
2023/07/03 02:35:47;;;;;;;20.77;13.33;;;16.90;1.00;;;;;;5117964;28;20179;-46
2023/07/03 02:38:15;;;;;;;19.73;12.70;;;16.90;1.00;;;;;;5135750;28;20203;-44
2023/07/03 02:40:41;;;;;;;18.90;14.07;;;16.80;1.00;;;;;;5135540;28;20269;-46
2023/07/03 02:43:08;;;;;;;18.10;13.37;;;16.80;1.00;;;;;;5135840;27;20458;-44
2023/07/03 02:45:36;;;;;;;21.93;13.73;;;16.70;1.00;;;;;;5136357;28;20841;-45
2023/07/03 02:48:02;;;;;;;18.57;13.37;;;16.70;1.00;;;;;;5135449;28;20421;-48
2023/07/03 02:50:28;;;;;;;21.10;15.10;;;16.70;1.00;;;;;;5135502;28;21201;-45
2023/07/03 02:52:53;;;;;;;17.90;13.93;;;16.70;1.00;;;;;;5135987;28;20183;-43
2023/07/03 02:55:19;;;;;;;22.70;14.70;;;16.60;1.00;;;;;;5135307;28;20210;-47
2023/07/03 02:57:44;;;;;;;23.87;14.90;;;16.60;1.00;;;;;;5134816;28;20198;-43
2023/07/03 03:00:11;;;;;;;21.33;15.80;;;16.60;1.00;;;;;;5133528;28;20179;-46
2023/07/03 03:02:37;;;;;;;25.63;13.27;;;16.60;1.00;;;;;;5134204;28;20475;-46
2023/07/03 03:05:02;;;;;;;18.40;13.70;;;16.70;1.00;;;;;;5133830;28;20428;-45
2023/07/03 03:07:28;;;;;;;22.30;14.17;;;16.70;1.00;;;;;;5133987;28;20189;-45
2023/07/03 03:09:54;;;;;;;21.73;15.00;;;16.60;1.00;;;;;;5134260;28;20806;-45
2023/07/03 03:12:19;;;;;;;22.00;14.90;;;16.70;1.00;;;;;;5134798;28;20258;-46
2023/07/03 03:14:46;;;;;;;17.30;15.07;;;16.70;1.00;;;;;;5135130;28;20187;-44
2023/07/03 03:17:11;;;;;;;22.00;15.30;;;16.70;1.00;;;;;;5135647;28;20206;-46
2023/07/03 03:19:37;;;;;;;20.40;13.57;;;16.80;1.00;;;;;;5136689;28;20440;-48
2023/07/03 03:22:03;;;;;;;21.43;13.90;;;16.80;1.00;;;;;;5136132;28;20200;-46
2023/07/03 03:24:28;;;;;;;15.60;11.93;;;16.80;1.00;;;;;;5135544;28;20250;-51
2023/07/03 03:26:54;;;;;;;21.90;13.50;;;16.70;1.00;;;;;;5135472;28;20450;-49
2023/07/03 03:29:19;;;;;;;26.63;15.23;;;16.70;1.00;;;;;;5135892;28;20199;-48
2023/07/03 03:31:45;;;;;;;20.90;14.30;;;16.70;1.00;;;;;;5135272;28;20164;-46
2023/07/03 03:34:12;;;;;;;20.57;14.40;;;16.70;4.00;;;;;;5135913;28;20159;-44
2023/07/03 03:36:38;;;;;;;19.50;13.20;;;16.70;10.20;;;;;;5136322;28;20271;-48
2023/07/03 03:39:04;;;;;;;23.17;14.10;;;16.60;15.10;;;;;;5136795;28;20424;-46
2023/07/03 03:41:30;;;;;;;19.50;13.70;;;16.70;17.00;;;;;;5137574;27;20424;-45
2023/07/03 03:43:56;;;;;;;16.67;12.63;;;16.70;19.50;;;;;;5140205;27;20428;-44
2023/07/03 03:46:21;;;;;;;21.17;13.83;;;16.60;24.40;;;;;;5139868;27;20167;-46
2023/07/03 03:48:47;;;;;;;19.07;12.90;;;16.60;29.30;;;;;;5140281;27;20225;-46
2023/07/03 03:51:13;;;;;;;23.50;13.30;;;16.60;38.90;;;;;;5139641;27;20171;-48
2023/07/03 03:53:39;;;;;;;23.77;14.60;;;16.60;42.50;;;;;;5139869;27;20179;-45
2023/07/03 03:56:05;;;;;;;19.90;13.53;;;16.60;46.80;;;;;;5139326;27;20200;-47
2023/07/03 03:58:30;;;;;;;15.10;12.63;;;16.60;54.60;;;;;;5139219;27;20862;-46
2023/07/03 04:00:56;;;;;;;22.00;14.07;;;16.50;59.30;;;;;;5138810;27;20187;-46
2023/07/03 04:03:21;;;;;;;16.63;11.87;;;16.50;69.50;;;;;;5139141;27;20266;-47
2023/07/03 04:05:47;;;;;;;19.47;13.10;;;16.50;93.20;;;;;;5139076;27;20440;-47
2023/07/03 04:08:13;;;;;;;20.63;14.03;;;16.50;94.80;;;;;;5138887;27;20193;-50
2023/07/03 04:10:42;;;;;;;18.83;12.47;;;16.60;93.20;;;;;;5138270;27;21120;-46
2023/07/03 04:13:09;;;;;;;18.03;14.33;;;16.60;99.90;;;;;;5138017;27;20644;-43
2023/07/03 04:15:37;;;;;;;18.00;13.33;;;16.60;99.90;;;;;;5137573;27;20467;-43
2023/07/03 04:18:02;;;;;;;18.50;13.23;;;16.60;99.90;;;;;;5118973;27;20456;-43
2023/07/03 04:20:28;;;;;;;19.33;13.10;;;16.70;99.90;;;;;;5137378;27;20463;-46
2023/07/03 04:22:54;;;;;;;21.23;14.47;;;16.70;99.90;;;;;;5137856;27;20194;-44
2023/07/03 04:25:19;;;;;;;16.30;11.77;;;16.80;99.10;;;;;;5138154;27;20219;-45
2023/07/03 04:27:46;;;;;;;16.10;12.10;;;16.80;97.00;;;;;;5138977;27;20207;-46
2023/07/03 04:30:12;;;;;;;18.03;12.60;;;16.80;93.00;;;;;;5137855;27;20483;-47
2023/07/03 04:32:38;;;;;;;19.47;12.63;;;16.80;99.10;;;;;;5138775;27;20194;-49
2023/07/03 04:35:04;;;;;;;18.40;13.20;;;16.80;87.50;;;;;;5138480;27;20245;-46
2023/07/03 04:37:30;;;;;;;20.07;13.50;;;16.90;91.20;;;;;;5138481;27;20183;-45
2023/07/03 04:39:56;;;;;;;16.70;11.10;;;16.90;82.70;;;;;;5137634;27;20693;-47
2023/07/03 04:42:22;;;;;;;19.60;12.67;;;17.00;80.70;;;;;;5137080;27;20171;-45
2023/07/03 04:44:48;;;;;;;20.77;12.73;;;17.00;62.10;;;;;;5137671;27;20448;-44
2023/07/03 04:47:18;;;;;;;15.57;11.60;;;17.00;70.20;;;;;;5137888;27;20440;-44
2023/07/03 04:49:45;;;;;;;15.50;11.50;;;17.00;61.30;;;;;;5137656;27;20551;-44
2023/07/03 04:52:11;;;;;;;23.30;13.43;;;17.00;71.50;;;;;;5118732;27;21008;-47
2023/07/03 04:54:37;;;;;;;15.93;12.17;;;17.00;88.00;;;;;;5135484;27;20531;-46
2023/07/03 04:57:03;;;;;;;17.27;12.73;;;17.00;92.30;;;;;;5134000;27;20183;-44
2023/07/03 04:59:28;;;;;;;15.40;12.47;;;17.00;92.20;;;;;;5133331;27;20436;-46
2023/07/03 05:01:54;;;;;;;21.53;12.33;;;17.10;94.10;;;;;;5116686;27;20854;-48
2023/07/03 05:04:20;;;;;;;20.83;12.43;;;17.10;91.50;;;;;;5134141;27;20425;-46
2023/07/03 05:06:46;;;;;;;17.50;12.27;;;17.10;94.30;;;;;;5131844;27;20183;-45
2023/07/03 05:09:12;;;;;;;16.93;12.40;;;17.10;93.60;;;;;;5133169;27;20207;-45
2023/07/03 05:11:37;;;;;;;21.33;12.33;;;17.20;98.40;;;;;;5135177;27;20428;-45
2023/07/03 05:14:03;;;;;;;18.30;11.47;;;17.20;93.50;;;;;;5134032;27;20479;-47
2023/07/03 05:16:28;;;;;;;13.67;10.40;;;17.30;81.60;;;;;;5134611;27;20229;-45
2023/07/03 05:18:54;;;;;;;17.23;10.90;;;17.30;87.00;;;;;;5133711;27;20346;-44
2023/07/03 05:21:20;;;;;;;16.43;11.27;;;17.40;72.20;;;;;;5134442;27;20171;-45
2023/07/03 05:23:45;;;;;;;19.43;12.00;;;17.40;65.00;;;;;;5133424;27;20195;-45
2023/07/03 05:26:11;;;;;;;21.77;12.27;;;17.50;53.90;;;;;;5132629;27;20186;-46
2023/07/03 05:28:37;;;;;;;17.27;10.53;;;17.60;39.30;;;;;;5133760;27;20220;-46
2023/07/03 05:31:03;;;;;;;13.10;9.47;;;17.60;38.00;;;;;;5135147;27;20736;-46
2023/07/03 05:33:29;;;;;;;15.03;10.50;;;17.60;32.90;;;;;;5136042;27;20194;-46
2023/07/03 05:35:58;;;;;;;20.17;12.13;;;17.70;30.80;;;;;;5136048;27;20436;-45
2023/07/03 05:38:24;;;;;;;19.03;12.60;;;17.80;22.00;;;;;;5136656;27;20475;-47
2023/07/03 05:40:50;;;;;;;12.53;10.67;;;17.90;13.30;;;;;;5135439;27;20749;-45
2023/07/03 05:43:16;;;;;;;16.97;10.60;;;17.90;15.10;;;;;;5135584;27;20171;-46
2023/07/03 05:45:42;;;;;;;13.83;10.30;;;17.80;15.20;;;;;;5136741;27;20446;-44
2023/07/03 05:48:07;;;;;;;15.93;10.73;;;17.70;19.40;;;;;;5134193;27;20429;-46
2023/07/03 05:50:33;;;;;;;14.40;10.37;;;17.70;27.50;;;;;;5132560;27;20529;-47
2023/07/03 05:52:59;;;;;;;14.23;10.87;;;17.70;31.40;;;;;;5133405;27;20207;-48
2023/07/03 05:55:24;;;;;;;15.53;11.10;;;17.70;30.50;;;;;;5133274;27;20181;-45
2023/07/03 05:57:50;;;;;;;14.20;10.47;;;17.80;21.90;;;;;;5134421;27;20286;-46
2023/07/03 06:00:17;;;;;;;14.47;10.20;;;17.80;24.30;;;;;;5117294;27;20183;-46
2023/07/03 06:02:43;;;;;;;15.50;11.27;;;17.90;21.50;;;;;;5133813;27;20611;-47
2023/07/03 06:05:13;;;;;;;15.00;10.37;;;18.00;17.20;;;;;;5133402;27;20427;-45
2023/07/03 06:07:40;;;;;;;13.00;9.73;;;18.10;7.50;;;;;;5134459;27;20473;-47
2023/07/03 06:10:07;;;;;;;13.93;10.87;;;18.30;4.90;;;;;;5134496;27;21041;-46
2023/07/03 06:12:33;;;;;;;16.40;10.70;;;18.30;1.00;;;;;;5133184;27;20428;-47
2023/07/03 06:15:00;;;;;;;12.47;9.87;;;18.40;1.00;;;;;;5133331;27;20485;-48
2023/07/03 06:17:27;;;;;;;13.33;10.60;;;18.40;1.00;;;;;;5133439;27;20643;-45
2023/07/03 06:19:53;;;;;;;19.20;10.60;;;18.40;1.00;;;;;;5134652;27;20421;-46
2023/07/03 06:22:19;;;;;;;15.70;9.87;;;18.30;1.00;;;;;;5134780;27;20408;-46
2023/07/03 06:24:45;;;;;;;14.13;10.30;;;18.50;1.00;;;;;;5133770;27;20480;-46
2023/07/03 06:27:12;;;;;;;16.50;10.47;;;18.60;1.00;;;;;;5134504;27;20240;-47
2023/07/03 06:29:38;;;;;;;14.53;10.53;;;18.70;1.00;;;;;;5125035;27;20473;-45
2023/07/03 06:32:04;;;;;;;14.37;10.03;;;18.70;1.00;;;;;;5128898;27;20502;-46
2023/07/03 06:34:30;;;;;;;14.97;10.30;;;18.80;1.00;;;;;;5123268;28;20203;-48
2023/07/03 06:36:56;;;;;;;13.93;9.03;;;18.90;1.00;;;;;;5134891;28;20482;-44
2023/07/03 06:39:22;;;;;;;13.80;9.63;;;18.90;1.00;;;;;;5134842;28;20179;-46
2023/07/03 06:41:47;;;;;;;16.10;11.17;;;18.90;1.00;;;;;;5133187;28;20183;-46
2023/07/03 06:44:16;;;;;;;14.53;10.50;;;19.10;1.00;;;;;;5134720;28;20856;-45
2023/07/03 06:46:42;;;;;;;12.20;9.97;;;19.20;1.00;;;;;;5135839;28;20171;-45
2023/07/03 06:49:08;;;;;;;12.73;9.83;;;19.20;1.00;;;;;;5133849;28;20552;-47
2023/07/03 06:51:34;;;;;;;12.30;9.33;;;19.20;1.00;;;;;;5135817;28;20493;-47
2023/07/03 06:54:00;;;;;;;14.23;9.40;;;19.20;1.00;;;;;;5116999;28;20424;-49
2023/07/03 06:56:27;;;;;;;13.97;9.50;;;19.10;1.00;;;;;;5134783;28;20853;-44
2023/07/03 06:58:52;;;;;;;18.40;11.20;;;19.20;1.00;;;;;;5136406;28;20178;-46
2023/07/03 07:01:23;;;;;;;15.13;10.07;;;19.20;1.00;;;;;;5136005;28;20392;-47
2023/07/03 07:03:49;;;;;;;14.60;10.17;;;19.30;1.00;;;;;;5132581;28;20222;-44
2023/07/03 07:06:19;;;;;;;16.60;10.87;;;19.20;1.00;;;;;;5135636;28;20881;-50
2023/07/03 07:08:45;;;;;;;12.60;9.90;;;19.20;1.00;;;;;;5133861;28;20425;-49
2023/07/03 07:11:16;;;;;;;17.20;9.93;;;19.20;1.00;;;;;;5132218;28;20489;-46
2023/07/03 07:13:47;;;;;;;14.30;10.60;;;19.30;1.00;;;;;;5133088;28;20225;-47
2023/07/03 07:16:14;;;;;;;17.13;10.73;;;19.50;1.00;;;;;;5134882;27;20441;-47
2023/07/03 07:18:41;;;;;;;15.53;9.93;;;19.60;1.00;;;;;;5137925;27;20447;-46
2023/07/03 07:21:07;;;;;;;15.67;10.43;;;19.70;1.00;;;;;;5136716;27;20613;-46
2023/07/03 07:23:32;;;;;;;19.60;11.67;;;19.60;1.00;;;;;;5136804;27;20561;-44
2023/07/03 07:25:58;;;;;;;16.40;10.60;;;19.60;1.00;;;;;;5117090;27;20465;-46
2023/07/03 07:28:24;;;;;;;15.43;10.70;;;19.50;1.00;;;;;;5116858;28;20195;-44
2023/07/03 07:30:49;;;;;;;14.63;10.27;;;19.50;1.00;;;;;;5117263;28;20222;-46
2023/07/03 07:33:16;;;;;;;14.53;10.10;;;19.40;1.00;;;;;;5117260;28;20200;-46
2023/07/03 07:35:43;;;;;;;12.23;8.93;;;19.40;1.00;;;;;;5117077;28;20168;-46
2023/07/03 07:38:13;;;;;;;17.80;8.93;;;19.50;1.00;;;;;;5118045;28;20735;-46
2023/07/03 07:40:39;;;;;;;14.90;10.67;;;19.60;1.00;;;;;;5118058;28;20563;-45
2023/07/03 07:43:05;;;;;;;17.43;9.93;;;19.60;1.00;;;;;;5116793;28;20512;-48
2023/07/03 07:45:31;;;;;;;14.70;9.67;;;19.60;1.00;;;;;;5117411;28;20448;-45
2023/07/03 07:47:57;;;;;;;15.53;9.10;;;19.60;1.00;;;;;;5116869;28;20878;-48
2023/07/03 07:50:23;;;;;;;16.30;9.13;;;19.70;1.00;;;;;;5096492;28;20454;-46
2023/07/03 07:52:49;;;;;;;15.17;9.57;;;19.90;1.00;;;;;;5115507;28;21085;-48
2023/07/03 07:55:16;;;;;;;12.97;9.67;;;19.90;1.00;;;;;;5116826;28;20172;-44
2023/07/03 07:57:42;;;;;;;12.80;8.40;;;20.10;1.00;;;;;;5116014;28;20815;-55
2023/07/03 08:00:08;;;;;;;12.90;8.80;;;20.20;1.00;;;;;;5115586;28;20776;-54
2023/07/03 08:02:34;;;;;;;15.93;9.50;;;20.30;1.00;;;;;;5115348;28;20491;-55
2023/07/03 08:05:00;;;;;;;15.23;9.47;;;20.40;1.00;;;;;;5115756;28;20455;-55
2023/07/03 08:07:25;;;;;;;15.50;9.07;;;20.40;1.00;;;;;;5111519;28;20196;-52
2023/07/03 08:09:51;;;;;;;14.43;9.90;;;20.30;1.00;;;;;;5096002;28;20215;-50
2023/07/03 08:12:17;;;;;;;12.73;8.87;;;20.10;1.00;;;;;;5095064;28;20457;-54
2023/07/03 08:14:42;;;;;;;13.87;9.23;;;20.10;1.00;;;;;;5094028;28;20176;-55
2023/07/03 08:17:08;;;;;;;14.07;8.57;;;20.20;1.00;;;;;;5095327;28;20172;-54
2023/07/03 08:19:34;;;;;;;15.77;10.47;;;20.30;1.00;;;;;;5100165;28;20190;-56
2023/07/03 08:21:59;;;;;;;13.57;8.47;;;20.50;1.00;;;;;;5104967;28;20935;-50
2023/07/03 08:24:25;;;;;;;13.10;8.70;;;20.40;1.00;;;;;;5122177;27;20241;-53
2023/07/03 08:26:53;;;;;;;15.63;9.67;;;20.20;1.00;;;;;;5135448;27;20422;-54
2023/07/03 08:29:18;;;;;;;14.07;8.47;;;20.30;1.00;;;;;;5136014;27;20358;-54
2023/07/03 08:31:44;;;;;;;12.43;8.77;;;20.30;1.00;;;;;;5135656;27;21001;-51
2023/07/03 08:34:10;;;;;;;15.10;9.13;;;20.30;1.00;;;;;;5117636;27;20186;-54
2023/07/03 08:36:36;;;;;;;11.50;8.03;;;20.30;1.00;;;;;;5136405;27;20186;-52
2023/07/03 08:39:03;;;;;;;11.17;8.13;;;20.60;1.00;;;;;;5135205;27;20436;-53
2023/07/03 08:41:31;;;;;;;16.40;9.60;;;20.80;1.00;;;;;;5135683;27;20253;-52
2023/07/03 08:43:58;;;;;;;13.03;9.40;;;20.90;1.00;;;;;;5117483;27;20447;-51
2023/07/03 08:46:26;;;;;;;14.00;8.60;;;20.80;1.00;;;;;;5114499;27;20749;-51
2023/07/03 08:48:56;;;;;;;13.73;8.53;;;20.70;1.00;;;;;;5131932;27;20648;-53
2023/07/03 08:51:24;;;;;;;14.90;9.33;;;20.60;1.00;;;;;;5132490;27;20442;-50
2023/07/03 08:53:54;;;;;;;14.67;9.20;;;20.50;1.00;;;;;;5133606;27;20830;-52
2023/07/03 08:56:26;;;;;;;13.30;9.30;;;20.60;1.00;;;;;;5132920;27;20419;-53
2023/07/03 08:58:52;;;;;;;10.50;9.03;;;20.80;1.00;;;;;;5133129;27;20417;-55
2023/07/03 09:01:27;;;;;;;16.00;9.33;;;21.30;1.00;;;;;;5114739;27;20467;-52
2023/07/03 09:04:17;;;;;;;13.23;10.37;;;21.70;1.00;;;;;;5116506;27;20590;-55
2023/07/03 09:06:50;;;;;;;12.10;9.77;;;22.00;1.00;;;;;;5133870;27;20810;-54
2023/07/03 09:09:23;;;;;;;12.70;8.80;;;21.90;1.00;;;;;;5116025;27;20897;-55
2023/07/03 09:12:13;;;;;;;15.10;10.00;;;21.80;1.00;;;;;;5135438;27;20412;-56
2023/07/03 09:14:53;;;;;;;10.13;8.67;;;21.80;1.00;;;;;;5135624;27;20436;-55
2023/07/03 09:17:19;;;;;;;11.93;8.77;;;21.70;1.00;;;;;;5133893;27;20413;-56
2023/07/03 09:19:47;;;;;;;12.83;9.40;;;21.60;1.00;;;;;;5115218;27;20534;-53
2023/07/03 09:22:34;;;;;;;13.80;8.70;;;21.60;1.00;;;;;;5115391;27;20557;-56
2023/07/03 09:25:03;;;;;;;12.97;9.10;;;21.80;1.00;;;;;;5130349;27;20472;-56
2023/07/03 09:27:30;;;;;;;9.43;8.23;;;21.80;1.00;;;;;;5112735;27;20459;-55
2023/07/03 09:29:59;;;;;;;13.23;7.97;;;21.90;1.00;;;;;;5114831;27;20476;-55
2023/07/03 09:32:27;;;;;;;12.50;8.27;;;22.00;1.00;;;;;;5134553;27;20416;-56
2023/07/03 09:35:15;;;;;;;11.57;8.33;;;22.10;1.00;;;;;;5133515;27;20599;-54
2023/07/03 09:37:52;;;;;;;10.13;7.53;;;22.50;1.00;;;;;;5133263;27;20790;-55
2023/07/03 09:40:25;;;;;;;13.60;6.87;;;22.50;1.00;;;;;;5132777;27;20436;-52
2023/07/03 09:42:51;;;;;;;12.93;7.63;;;22.10;1.00;;;;;;5116632;27;20444;-54
2023/07/03 09:45:21;;;;;;;13.37;7.37;;;21.70;1.00;;;;;;5132691;27;20428;-53
2023/07/03 09:47:53;;;;;;;12.03;7.20;;;21.50;1.00;;;;;;5115714;27;20560;-53
2023/07/03 09:50:31;;;;;;;13.03;8.43;;;21.50;1.00;;;;;;5110100;28;20853;-51
2023/07/03 09:52:57;;;;;;;14.50;6.87;;;22.10;1.00;;;;;;5114866;27;20447;-52
2023/07/03 09:55:24;;;;;;;11.63;7.30;;;22.30;1.00;;;;;;5131766;27;20467;-52
2023/07/03 09:57:50;;;;;;;17.73;8.77;;;22.40;1.00;;;;;;5134275;27;20827;-51
2023/07/03 10:00:19;;;;;;;11.77;7.47;;;22.60;1.00;;;;;;5134309;27;20535;-51
2023/07/03 10:02:45;;;;;;;8.60;6.70;;;22.90;1.00;;;;;;5116362;27;20323;-51
2023/07/03 10:05:16;;;;;;;11.53;7.00;;;22.90;1.00;;;;;;5134288;27;20515;-51
2023/07/03 10:07:43;;;;;;;9.40;6.60;;;22.90;1.00;;;;;;5136341;27;20220;-50
2023/07/03 10:10:14;;;;;;;14.83;6.90;;;23.80;1.00;;;;;;5135530;27;20476;-51
2023/07/03 10:12:46;;;;;;;10.60;6.93;;;25.20;1.00;;;;;;5117181;27;20458;-49
2023/07/03 10:15:25;;;;;;;9.73;6.80;;;26.40;1.00;;;;;;5117684;28;20722;-52
2023/07/03 10:17:54;;;;;;;10.30;6.80;;;26.90;1.00;;;;;;5116092;27;20678;-52
2023/07/03 10:20:32;;;;;;;9.67;6.97;;;26.90;1.00;;;;;;5113538;27;20408;-50
2023/07/03 10:23:02;;;;;;;8.40;6.67;;;25.80;1.00;;;;;;5134810;27;20786;-50
2023/07/03 10:25:31;;;;;;;9.40;6.03;;;25.30;1.00;;;;;;5115457;27;20641;-51
2023/07/03 10:28:00;;;;;;;9.13;5.97;;;25.20;1.00;;;;;;5112413;28;20424;-50
2023/07/03 10:30:30;;;;;;;10.63;6.40;;;25.20;1.00;;;;;;5132520;27;20475;-54
2023/07/03 10:32:58;;;;;;;6.37;4.97;;;26.10;1.00;;;;;;5116823;28;20519;-50
2023/07/03 10:35:28;;;;;;;6.63;5.50;;;26.90;1.00;;;;;;5115042;28;20409;-52
2023/07/03 10:38:20;;;;;;;6.17;4.70;;;27.80;1.00;;;;;;5115156;28;20530;-50
2023/07/03 10:41:03;;;;;;;7.03;4.30;;;27.90;1.00;;;;;;5133853;28;20424;-51
2023/07/03 10:43:39;;;;;;;7.60;4.20;;;27.50;1.00;;;;;;5114492;28;20655;-49
2023/07/03 10:46:06;;;;;;;5.60;4.13;;;26.20;1.00;;;;;;5113724;28;20420;-51
2023/07/03 10:48:33;;;;;;;6.70;4.33;;;25.70;1.00;;;;;;5130642;28;20747;-56
2023/07/03 10:51:25;;;;;;;5.67;4.37;;;25.20;1.00;;;;;;5115489;27;20476;-51
2023/07/03 10:54:28;;;;;;;5.90;4.50;;;24.80;1.00;;;;;;5117827;27;20503;-49
2023/07/03 10:56:55;;;;;;;6.10;4.37;;;24.20;1.00;;;;;;5073453;27;20521;-48
2023/07/03 10:59:26;;;;;;;6.80;4.13;;;23.70;1.00;;;;;;5100563;27;20412;-53
2023/07/03 11:02:08;;;;;;;7.97;4.73;;;23.60;1.00;;;;;;5134895;27;20437;-50
2023/07/03 11:04:39;;;;;;;8.13;4.73;;;23.80;1.00;;;;;;5113143;27;20772;-52
2023/07/03 11:07:10;;;;;;;6.70;4.27;;;23.80;1.00;;;;;;5094399;27;20877;-51
2023/07/03 11:09:51;;;;;;;8.30;5.03;;;24.20;1.00;;;;;;5132937;27;20909;-53
2023/07/03 11:12:35;;;;;;;6.00;4.70;;;25.40;1.00;;;;;;5136008;27;20424;-51
2023/07/03 11:15:24;;;;;;;5.63;4.47;;;25.90;1.00;;;;;;5115975;27;20452;-51
2023/07/03 11:17:50;;;;;;;8.80;4.50;;;26.00;1.00;;;;;;5134475;27;20411;-49
2023/07/03 11:20:37;;;;;;;6.90;5.00;;;25.90;1.00;;;;;;5115817;27;20421;-51
2023/07/03 11:23:25;;;;;;;8.07;5.37;;;26.30;1.00;;;;;;5118997;27;20195;-52
2023/07/03 11:25:56;;;;;;;7.90;4.83;;;27.50;1.00;;;;;;5135304;27;20504;-49
2023/07/03 11:28:30;;;;;;;7.47;4.70;;;27.20;1.00;;;;;;5133934;27;20793;-53
2023/07/03 11:30:58;;;;;;;6.93;4.50;;;27.10;1.00;;;;;;5132131;27;20939;-53
2023/07/03 11:33:24;;;;;;;7.30;5.67;;;27.40;1.00;;;;;;5133136;27;20703;-50
2023/07/03 11:35:53;;;;;;;5.20;4.60;;;27.30;1.00;;;;;;5113395;27;20807;-52
2023/07/03 11:38:20;;;;;;;6.67;5.27;;;26.50;1.00;;;;;;5113951;27;20160;-50
2023/07/03 11:41:07;;;;;;;8.10;4.97;;;26.50;1.00;;;;;;5133959;27;20439;-49
2023/07/03 11:43:39;;;;;;;6.97;5.00;;;27.00;1.00;;;;;;5134840;27;20775;-51
2023/07/03 11:46:12;;;;;;;6.93;5.27;;;27.50;1.00;;;;;;5134940;27;20435;-51
2023/07/03 11:48:38;;;;;;;7.50;4.93;;;27.70;1.00;;;;;;5116087;27;20741;-52
2023/07/03 11:51:04;;;;;;;6.20;4.57;;;27.50;1.00;;;;;;5132859;27;20800;-50
2023/07/03 11:53:52;;;;;;;6.70;4.70;;;28.20;1.00;;;;;;5115132;27;20184;-52
2023/07/03 11:56:35;;;;;;;8.77;6.00;;;28.70;1.00;;;;;;5117890;27;20492;-53
2023/07/03 11:59:12;;;;;;;6.47;4.57;;;28.60;1.00;;;;;;5136512;27;20451;-52
2023/07/03 12:01:38;;;;;;;6.70;4.57;;;27.90;1.00;;;;;;5135725;27;20530;-49
2023/07/03 12:04:07;;;;;;;7.63;5.63;;;27.40;1.00;;;;;;5136020;27;20527;-52
2023/07/03 12:06:39;;;;;;;8.47;5.50;;;27.60;1.00;;;;;;5133404;27;20270;-49
2023/07/03 12:09:26;;;;;;;8.40;5.77;;;27.30;1.00;;;;;;5133631;27;20640;-49
2023/07/03 12:12:00;;;;;;;7.33;5.20;;;26.10;1.00;;;;;;5134854;27;20392;-53
2023/07/03 12:15:01;;;;;;;6.83;5.00;;;25.80;1.00;;;;;;5132560;27;20818;-51
2023/07/03 12:17:34;;;;;;;7.40;5.30;;;26.60;1.00;;;;;;5130153;27;20391;-53
2023/07/03 12:20:12;;;;;;;7.23;4.57;;;28.20;1.00;;;;;;5132885;27;20427;-51
2023/07/03 12:22:41;;;;;;;10.13;5.30;;;28.40;1.00;;;;;;5133300;27;20399;-53
2023/07/03 12:25:10;;;;;;;6.13;5.03;;;28.20;1.00;;;;;;5115154;27;20468;-51
2023/07/03 12:27:37;;;;;;;7.30;5.70;;;28.20;1.00;;;;;;5133998;27;20483;-50
2023/07/03 12:30:05;;;;;;;7.17;5.80;;;27.80;1.00;;;;;;5132325;27;20468;-50
2023/07/03 12:32:33;;;;;;;8.80;5.97;;;27.50;1.00;;;;;;5133521;27;20409;-50
2023/07/03 12:35:16;;;;;;;9.17;6.10;;;27.40;1.00;;;;;;5131440;27;20795;-51
2023/07/03 12:37:56;;;;;;;7.83;5.57;;;26.80;1.00;;;;;;5114506;27;20527;-50
2023/07/03 12:40:23;;;;;;;9.07;5.60;;;26.10;1.00;;;;;;5116183;27;20432;-54
2023/07/03 12:42:51;;;;;;;9.00;5.70;;;25.80;1.00;;;;;;5115711;27;20604;-50
2023/07/03 12:45:26;;;;;;;7.47;4.93;;;26.00;1.00;;;;;;5115309;27;20869;-50
2023/07/03 12:48:17;;;;;;;8.27;4.47;;;27.40;1.00;;;;;;5135726;27;20412;-54
2023/07/03 12:50:55;;;;;;;7.60;5.27;;;29.00;1.00;;;;;;5134705;27;20460;-53